Berden, United Kingdom
Current Conditions -  °F | °C
As of 2:50 AM on Wednesday 26 Nov 2014 (Local Time) from EGSS Reporting Station
Haze Haze  
Wind Chill: 40°   Ceiling: 2900
Heat Index: 45°   Visibility: 2.6mi
Dew Point: 45°   Wind: 9mph
Humidity: 100%   Direction: 80°E
Pressure: 29.94"   Gusts: NA
Location:  51.94°N, 0.15°E
Report Text: EGSS 260250Z 08008KT 4200 BR OVC029 07/07 Q1014
Loading
Personal Weather Stations






























Interactive Weather Map New forecast layout! Learn more

10-Day Weather Forecast

Advertisements
Track Severe Weather on mobile